createdAt,value
2022-12-17T00:06:46.028Z,11.70
2022-12-17T00:16:45.984Z,11.70
2022-12-17T00:21:46.015Z,8.70
2022-12-17T00:26:46.026Z,8.70
2022-12-17T00:46:46.045Z,8.80
2022-12-17T00:56:46.019Z,11.60
2022-12-17T01:06:46.006Z,11.80
2022-12-17T01:11:46.030Z,11.80
2022-12-17T01:16:46.060Z,11.80
2022-12-17T01:21:45.997Z,11.00
2022-12-17T01:26:46.005Z,11.00
2022-12-17T01:31:46.091Z,11.00
2022-12-17T01:36:46.008Z,11.00
2022-12-17T01:46:46.053Z,11.00
2022-12-17T01:51:46.035Z,11.90
2022-12-17T01:56:46.027Z,11.90
2022-12-17T02:01:46.245Z,11.90
2022-12-17T02:16:46.149Z,5.60
2022-12-17T02:21:46.043Z,5.80
2022-12-17T02:31:46.077Z,5.80
2022-12-17T02:36:46.031Z,7.40
2022-12-17T02:41:46.017Z,7.40
2022-12-17T02:46:46.025Z,7.40
2022-12-17T02:51:46.054Z,9.90
2022-12-17T03:01:46.125Z,9.90
2022-12-17T03:06:46.017Z,13.10
2022-12-17T03:26:46.021Z,11.30
2022-12-17T03:36:46.050Z,10.80
2022-12-17T03:41:46.051Z,10.80
2022-12-17T03:51:46.055Z,13.60
2022-12-17T03:56:46.054Z,13.60
2022-12-17T04:01:46.214Z,13.60
2022-12-17T04:11:46.054Z,13.70
2022-12-17T04:26:46.055Z,9.80
2022-12-17T04:31:46.109Z,9.80
2022-12-17T04:51:46.027Z,13.30
2022-12-17T04:56:46.062Z,13.30
2022-12-17T05:06:46.051Z,16.90
2022-12-17T05:11:46.079Z,16.90
2022-12-17T05:16:46.067Z,16.90
2022-12-17T05:21:46.059Z,16.00
2022-12-17T05:36:46.132Z,12.80
2022-12-17T05:41:46.042Z,12.80
2022-12-17T05:51:46.075Z,14.40
2022-12-17T05:56:46.043Z,14.40
2022-12-17T06:01:46.137Z,14.40
2022-12-17T06:06:46.070Z,15.80
2022-12-17T06:11:46.052Z,15.80
2022-12-17T06:16:46.055Z,15.80
2022-12-17T06:41:46.061Z,15.50
2022-12-17T06:56:46.058Z,15.60
2022-12-17T07:06:46.084Z,12.60
2022-12-17T07:16:46.118Z,12.60
2022-12-17T07:21:46.061Z,12.80
2022-12-17T07:26:46.058Z,12.80
2022-12-17T07:41:46.091Z,15.80
2022-12-17T07:46:46.063Z,15.80
2022-12-17T07:56:46.094Z,14.00
2022-12-17T08:06:46.072Z,16.40
2022-12-17T08:11:46.094Z,16.40
2022-12-17T08:16:46.107Z,16.40
2022-12-17T08:21:46.069Z,16.30
2022-12-17T08:26:48.100Z,16.30
2022-12-17T08:41:49.791Z,18.90
2022-12-17T08:46:46.106Z,18.90
2022-12-17T08:56:46.309Z,17.20
2022-12-17T09:01:46.240Z,17.20
2022-12-17T09:06:46.072Z,17.30
2022-12-17T09:11:46.075Z,17.30
2022-12-17T09:21:46.072Z,15.90
2022-12-17T09:36:51.013Z,14.30
2022-12-17T09:41:47.534Z,14.30
2022-12-17T09:46:46.106Z,14.30
2022-12-17T09:56:46.093Z,14.00
2022-12-17T10:01:46.299Z,14.00
2022-12-17T10:06:46.099Z,17.50
2022-12-17T10:11:46.087Z,17.50
2022-12-17T10:21:46.109Z,15.80
2022-12-17T10:26:46.093Z,15.80
2022-12-17T10:31:46.104Z,15.80
2022-12-17T10:36:46.109Z,14.40
2022-12-17T10:41:46.088Z,14.40
2022-12-17T10:51:46.112Z,12.60
2022-12-17T10:56:46.097Z,12.60
2022-12-17T11:01:46.239Z,12.60
2022-12-17T11:06:46.094Z,16.90
2022-12-17T11:11:46.098Z,16.90
2022-12-17T11:16:46.136Z,16.90
2022-12-17T11:21:46.121Z,13.60
2022-12-17T11:26:46.112Z,13.60
2022-12-17T11:41:46.128Z,12.00
2022-12-17T11:46:46.178Z,12.00
2022-12-17T11:51:46.099Z,11.70
2022-12-17T11:56:46.133Z,11.70
2022-12-17T12:01:46.167Z,11.70
2022-12-17T12:11:46.108Z,11.50
2022-12-17T12:16:46.220Z,11.50
2022-12-17T12:21:46.115Z,18.70
2022-12-17T12:26:46.114Z,18.70
2022-12-17T12:31:47.573Z,18.70
2022-12-17T12:36:46.114Z,12.60
2022-12-17T12:41:46.113Z,12.60
2022-12-17T12:46:46.148Z,12.60
2022-12-17T12:51:46.109Z,19.10
2022-12-17T12:56:49.040Z,19.10
2022-12-17T13:01:46.371Z,19.10
2022-12-17T13:06:46.124Z,13.40
2022-12-17T13:11:46.140Z,13.40
2022-12-17T13:21:46.137Z,19.50
2022-12-17T13:26:46.158Z,19.50
2022-12-17T13:36:46.113Z,15.20
2022-12-17T13:41:46.142Z,15.20
2022-12-17T13:46:47.616Z,15.20
2022-12-17T13:51:46.150Z,21.00
2022-12-17T13:56:46.146Z,21.00
2022-12-17T14:01:46.520Z,21.00
2022-12-17T14:06:46.143Z,14.90
2022-12-17T14:11:46.151Z,14.90
2022-12-17T14:16:50.497Z,14.90
2022-12-17T14:21:46.125Z,18.30
2022-12-17T14:26:46.155Z,18.30
2022-12-17T14:31:46.174Z,18.30
2022-12-17T14:36:46.145Z,16.70
2022-12-17T14:46:46.155Z,16.70
2022-12-17T14:51:46.136Z,11.00
2022-12-17T14:56:46.207Z,11.00
2022-12-17T15:01:48.346Z,11.00
2022-12-17T15:06:46.128Z,14.70
2022-12-17T15:21:46.144Z,15.60
2022-12-17T15:26:46.131Z,15.60
2022-12-17T15:41:46.141Z,13.40
2022-12-17T15:46:46.242Z,13.40
2022-12-17T15:51:46.166Z,15.10
2022-12-17T15:56:46.148Z,15.10
2022-12-17T16:11:46.144Z,10.00
2022-12-17T16:16:46.158Z,10.00
2022-12-17T16:21:47.085Z,12.60
2022-12-17T16:26:46.169Z,12.60
2022-12-17T16:31:46.186Z,12.60
2022-12-17T16:36:46.154Z,15.10
2022-12-17T16:41:46.218Z,15.10
2022-12-17T16:46:46.265Z,15.10
2022-12-17T17:01:46.289Z,12.40
2022-12-17T17:16:46.202Z,12.70
2022-12-17T17:21:46.157Z,11.70
2022-12-17T17:26:46.173Z,11.70
2022-12-17T17:32:09.878Z,11.70
2022-12-17T17:36:46.197Z,5.50
2022-12-17T17:41:46.181Z,5.50
2022-12-17T17:52:09.079Z,6.20
2022-12-17T17:56:46.154Z,6.20
2022-12-17T18:07:15.989Z,10.90
2022-12-17T18:11:46.230Z,10.90
2022-12-17T18:16:46.179Z,10.90
2022-12-17T18:21:46.191Z,10.70
2022-12-17T18:26:46.178Z,10.70
2022-12-17T18:36:47.579Z,10.30
2022-12-17T18:46:46.299Z,10.30
2022-12-17T18:57:01.094Z,11.00
2022-12-17T19:01:50.465Z,11.00
2022-12-17T19:06:46.187Z,9.00
2022-12-17T19:11:46.175Z,9.00
2022-12-17T19:16:46.254Z,9.00
2022-12-17T19:26:46.175Z,12.90
2022-12-17T19:36:46.227Z,11.70
2022-12-17T19:46:46.188Z,11.70
2022-12-17T19:51:46.219Z,11.40
2022-12-17T19:56:46.417Z,11.40
2022-12-17T20:01:46.344Z,11.40
2022-12-17T20:06:46.182Z,15.40
2022-12-17T20:11:46.208Z,15.40
2022-12-17T20:21:46.188Z,7.00
2022-12-17T20:26:46.218Z,7.00
2022-12-17T20:31:49.710Z,7.00
2022-12-17T20:41:46.204Z,12.30
2022-12-17T20:56:46.224Z,14.10
2022-12-17T21:01:49.028Z,14.10
2022-12-17T21:11:46.224Z,15.00
2022-12-17T21:21:46.199Z,13.80
2022-12-17T21:26:46.193Z,13.80
2022-12-17T21:31:46.220Z,13.80
2022-12-17T21:36:46.192Z,13.20
2022-12-17T21:41:46.202Z,13.20
2022-12-17T21:46:49.629Z,13.20
2022-12-17T21:56:46.191Z,14.00
2022-12-17T22:01:46.347Z,14.00
2022-12-17T22:06:47.118Z,13.00
2022-12-17T22:11:46.191Z,13.00
2022-12-17T22:16:46.265Z,13.00
2022-12-17T22:26:46.235Z,6.70
2022-12-17T22:31:46.196Z,6.70
2022-12-17T22:46:46.237Z,6.90
2022-12-17T22:51:46.201Z,7.80
2022-12-17T22:56:54.784Z,7.80
2022-12-17T23:06:46.226Z,8.50
2022-12-17T23:11:46.204Z,8.50
2022-12-17T23:16:46.229Z,8.50
2022-12-17T23:31:46.327Z,7.70
2022-12-17T23:36:46.241Z,7.30
2022-12-17T23:41:46.208Z,7.30
2022-12-17T23:46:46.633Z,7.30
2022-12-17T23:51:46.237Z,10.70
2022-12-17T23:56:46.205Z,10.70
